createdAt,value
2019-03-10T10:42:35.538Z,74559.50
2019-03-10T10:45:16.487Z,74564.47
2019-03-10T10:47:57.460Z,74565.45
2019-03-10T10:50:38.453Z,74570.42
2019-03-10T10:53:21.402Z,74570.42
2019-03-10T10:56:00.824Z,74577.38
2019-03-10T10:58:41.464Z,74589.30
2019-03-10T11:01:22.431Z,74599.23
2019-03-10T11:04:03.114Z,74611.15
2019-03-10T11:06:44.213Z,74633.99
2019-03-10T11:09:25.139Z,74634.98
2019-03-10T11:12:06.043Z,74633.99
2019-03-10T11:14:46.803Z,74655.84
2019-03-10T11:17:27.282Z,74664.78
2019-03-10T11:20:07.820Z,74663.80
2019-03-10T11:22:49.012Z,74664.78
2019-03-10T11:25:29.884Z,74677.70
2019-03-10T11:28:10.412Z,74677.70
2019-03-10T11:30:50.597Z,74693.59
2019-03-10T11:33:30.942Z,74703.52
2019-03-10T11:36:10.829Z,74716.44
2019-03-10T11:38:51.401Z,74720.41
2019-03-10T11:41:34.069Z,74720.41
2019-03-10T11:44:12.495Z,74731.34
2019-03-10T11:46:52.541Z,74736.30
2019-03-10T11:49:33.353Z,74740.28
2019-03-10T11:52:14.209Z,74747.23
2019-03-10T11:54:55.195Z,74738.29
2019-03-10T11:57:35.831Z,74760.14
2019-03-10T12:00:16.406Z,74774.05
2019-03-10T12:02:58.130Z,74781.00
2019-03-10T12:05:38.930Z,74789.95
2019-03-10T12:08:19.152Z,74800.87
2019-03-10T12:10:59.892Z,74803.84
2019-03-10T12:13:40.642Z,74804.84
2019-03-10T12:16:21.785Z,74813.78
2019-03-10T12:19:02.726Z,74824.71
2019-03-10T12:21:43.730Z,74831.66
2019-03-10T12:24:24.697Z,74840.61
2019-03-10T12:27:05.500Z,74846.56
2019-03-10T12:29:46.316Z,74864.44
2019-03-10T12:32:27.122Z,74869.41
2019-03-10T12:35:08.147Z,74887.29
2019-03-10T12:37:49.056Z,74898.22
2019-03-10T12:40:30.130Z,74899.21
2019-03-10T12:43:11.109Z,74908.16
2019-03-10T12:45:51.638Z,74919.08
2019-03-10T12:48:32.450Z,74920.07
2019-03-10T12:51:13.977Z,74935.97
2019-03-10T12:53:54.961Z,74936.95
2019-03-10T12:56:35.441Z,74944.91
2019-03-10T12:59:16.841Z,74957.82
2019-03-10T13:01:58.035Z,74962.78
2019-03-10T13:04:38.754Z,74966.77
2019-03-10T13:07:19.493Z,74982.66
2019-03-10T13:10:00.030Z,74990.60
2019-03-10T13:12:40.003Z,74993.58
2019-03-10T13:15:23.948Z,75003.52
2019-03-10T13:18:04.160Z,74996.56
2019-03-10T13:20:45.208Z,75002.52
2019-03-10T13:23:25.909Z,75017.42
2019-03-10T13:26:06.183Z,75029.34
2019-03-10T13:28:46.158Z,75031.33
2019-03-10T13:31:26.619Z,75039.28
2019-03-10T13:34:07.113Z,75032.33
2019-03-10T13:36:47.062Z,75036.30
2019-03-10T13:39:28.280Z,75048.22
2019-03-10T13:42:08.353Z,75044.24
2019-03-10T13:44:48.235Z,75051.20
2019-03-10T13:47:28.181Z,75056.16
2019-03-10T13:50:08.301Z,75056.16
2019-03-10T13:52:48.912Z,75062.13
2019-03-10T13:55:28.706Z,75056.16
2019-03-10T13:58:09.950Z,75056.16
2019-03-10T14:00:50.158Z,75054.18
2019-03-10T14:03:30.588Z,75055.17
2019-03-10T14:06:10.706Z,75060.14
2019-03-10T14:08:50.919Z,75066.09
2019-03-10T14:11:31.169Z,75074.05
2019-03-10T14:14:11.405Z,75105.84
2019-03-10T14:16:51.495Z,75110.80
2019-03-10T14:19:31.666Z,75113.78
2019-03-10T14:22:11.970Z,75121.73
2019-03-10T14:24:52.310Z,75130.67
2019-03-10T14:27:33.293Z,75150.54
2019-03-10T14:30:13.567Z,75161.47
2019-03-10T14:32:53.807Z,75170.41
2019-03-10T14:35:33.996Z,75175.38
2019-03-10T14:38:14.735Z,75185.31
2019-03-10T14:40:55.379Z,75186.30
2019-03-10T14:43:36.160Z,75191.27
2019-03-10T14:46:16.415Z,75182.33
2019-03-10T14:48:57.382Z,75172.39
2019-03-10T14:51:37.716Z,75170.41
2019-03-10T14:54:18.817Z,75166.44
2019-03-10T14:57:02.420Z,75166.44
2019-03-10T14:59:40.389Z,75178.36
2019-03-10T15:02:20.519Z,75198.22
2019-03-10T15:05:00.668Z,75191.27
2019-03-10T15:07:40.691Z,75190.27
2019-03-10T15:10:20.734Z,75198.22
2019-03-10T15:13:00.587Z,75206.17
2019-03-10T15:15:41.253Z,75224.05
2019-03-10T15:18:21.633Z,75229.02
2019-03-10T15:21:02.132Z,75232.99
2019-03-10T15:23:42.498Z,75232.00
2019-03-10T15:26:23.151Z,75231.00
2019-03-10T15:29:03.504Z,75233.98
2019-03-10T15:31:43.711Z,75234.98
2019-03-10T15:34:23.936Z,75235.97
2019-03-10T15:37:04.808Z,75247.89
2019-03-10T15:39:45.193Z,75263.79
2019-03-10T15:42:25.144Z,75255.84
2019-03-10T15:45:08.640Z,75263.79
2019-03-10T15:47:49.790Z,75261.80
2019-03-10T15:50:29.983Z,75264.78
2019-03-10T15:53:10.694Z,75271.73
2019-03-10T15:55:51.017Z,75271.73
2019-03-10T15:58:31.362Z,75273.72
2019-03-10T16:01:11.146Z,75274.72
2019-03-10T16:03:51.175Z,75277.70
2019-03-10T16:06:31.455Z,75283.66
2019-03-10T16:09:11.640Z,75279.69
2019-03-10T16:11:52.123Z,75279.69
2019-03-10T16:14:32.471Z,75282.66
2019-03-10T16:17:12.503Z,75282.66
2019-03-10T16:19:52.563Z,75287.63
2019-03-10T16:22:34.735Z,75289.62
2019-03-10T16:25:13.891Z,75292.59
2019-03-10T16:27:54.534Z,75289.62
2019-03-10T16:30:40.435Z,75288.63
2019-03-10T16:33:26.977Z,75288.63
2019-03-10T16:36:16.830Z,75281.67
2019-03-10T16:39:03.892Z,75289.62
2019-03-10T16:41:53.470Z,75290.61
2019-03-10T16:44:37.002Z,75299.55
2019-03-10T16:47:18.463Z,75295.58
2019-03-10T16:49:58.725Z,75301.55
2019-03-10T16:52:39.931Z,75303.53
2019-03-10T16:55:22.334Z,75302.53
2019-03-10T16:58:06.399Z,75303.53
2019-03-10T17:00:47.921Z,75302.53
2019-03-10T17:03:32.708Z,75302.53
2019-03-10T17:06:16.514Z,75298.56
2019-03-10T17:09:04.789Z,75301.55
2019-03-10T17:11:50.413Z,75296.58
2019-03-10T17:14:37.360Z,75294.59
2019-03-10T17:17:24.440Z,75289.62
2019-03-10T17:20:06.021Z,75283.66
2019-03-10T17:22:46.559Z,75285.64
2019-03-10T17:25:26.581Z,75291.61
2019-03-10T17:28:11.075Z,75284.66
2019-03-10T17:30:55.227Z,75282.66
2019-03-10T17:33:38.613Z,75277.70
2019-03-10T17:36:25.145Z,75281.67
2019-03-10T17:39:12.839Z,75274.72
2019-03-10T17:41:59.140Z,75273.72
2019-03-10T17:44:47.099Z,75250.88
2019-03-10T17:50:21.126Z,75240.94
2019-03-10T17:53:07.803Z,75246.90
2019-03-10T17:55:55.263Z,75236.97
2019-03-10T17:58:43.276Z,75241.94
2019-03-10T18:01:28.292Z,75246.90
2019-03-10T18:04:14.423Z,75247.89
2019-03-10T18:06:59.443Z,75249.88
2019-03-10T18:09:48.165Z,75243.92
2019-03-10T18:12:36.238Z,75250.88
2019-03-10T18:15:24.588Z,75245.91
2019-03-10T18:20:52.913Z,75241.94
2019-03-10T18:23:34.170Z,75241.94
2019-03-10T18:26:14.882Z,75242.93
2019-03-10T18:28:57.931Z,75234.98
2019-03-10T18:37:04.540Z,75222.06
2019-03-10T18:39:48.316Z,75216.11
2019-03-10T18:45:12.511Z,75211.14
2019-03-10T18:47:52.696Z,75215.11
2019-03-10T18:50:33.853Z,75213.13
2019-03-10T18:53:14.372Z,75208.16
2019-03-10T18:55:54.989Z,75208.16
2019-03-10T19:01:21.318Z,75212.13
2019-03-10T19:04:01.357Z,75207.16
2019-03-10T19:06:42.310Z,75207.16
